Tiempo atmosférico en la estación meteorológica de Estaca De Bares, A Coruña (80 m.)



Fecha
DESCASC
Temp. máxima en grados centígrados (hora)
DESCASC
Temp. mínima en grados centígrados (hora)
DESCASC
Temp. media en grados centígrados
DESCASC
Racha de viento máxima en m/sg (hora)
DESCASC
Velocidad máxima media en intervalos de 10 minutos(hora)
DESCASC
Precipitaciones diarias en mm
DESCASC
Precipitaciones de 00:00 a 06:00 en mm
DESCASC
Precipitaciones de 06:00 a 12:00 en mm
DESCASC
Precipitaciones de 12:00 a 18:00 en mm
DESCASC
Precipitaciones de 18:00 a 24:00 en mm
DESCASC
08-12-2019 14.9 (06:20) 11.5 (23:50) 13.2 19.44 (05:10) 16.39 (05:10) 2.4 0 2.2 0.2 0
07-12-2019 15.8 (16:40) 12.6 (00:10) 14.2 13.33 (23:59) 11.11 (23:59) 0 0 0 0 0
06-12-2019 13.9 (16:30) 11.1 (08:30) 12.5 12.22 (21:40) 10.56 (21:40) 0 0 0 0 0
05-12-2019 12.9 (23:40) 11.1 (00:00) 12 18.06 (05:40) 14.72 (05:40) 0.2 0.2 0 0 0
04-12-2019 12.3 (23:20) 6.3 (00:00) 9.3 12.22 (23:10) 9.72 (23:20) 0 0 0 0 0
03-12-2019 11.4 (00:40) 9.2 (00:00) 10.3 21.67 (03:30) 17.5 (03:10) 0 0 0 0 0
02-12-2019 11.5 (23:50) 10.1 (00:00) 10.8 22.78 (05:00) 18.89 (17:50) 0.8 0.6 0 0.2 0
01-12-2019 12.5 (10:30) 10.5 (00:00) 11.5 20.56 (23:59) 12.78 (22:50) 3.8 0 2.4 1.4 0
30-11-2019 15.6 (01:00) 8.8 (00:00) 12.2 26.67 (12:00) 21.39 (04:20) 12 2.2 0.2 9.6 0
29-11-2019 15.5 (14:40) 12.3 (00:00) 13.9 11.94 (23:50) 8.61 (05:40) 0 0 0 0 0
28-11-2019 13.8 (13:30) 12.1 (00:00) 13 20.56 (01:20) 17.22 (01:20) 4.4 0 0 1.8 2.6
27-11-2019 14.1 (13:40) 11.5 (00:00) 12.8 26.94 (03:30) 20.83 (03:30) 3.8 0.4 2.2 1.2 0
26-11-2019 17.4 (00:00) 9.8 (00:00) 13.6 37.5 (22:10) 25.83 (18:50) 11.2 0.6 0 4.4 6.2
25-11-2019 17.4 (23:00) 12.7 (00:00) 15 24.72 (02:40) 20.56 (03:00) 1.2 1.2 0 0 0
24-11-2019 16.4 (14:40) 10.8 (00:00) 13.6 27.22 (14:50) 18.61 (21:30) 1.8 0.2 0 0.4 1.2
23-11-2019 13.2 (14:10) 10.2 (00:00) 11.7 30 (00:50) 23.89 (02:00) 19 15.2 2.4 0.8 0.6
22-11-2019 14 (13:20) 10.8 (00:00) 12.4 31.11 (23:40) 23.89 (18:40) 28 1.4 8.4 1.6 16.6
21-11-2019 13.5 (13:00) 8.4 (00:00) 10.9 26.67 (13:10) 18.06 (13:10) 1.4 1 0.2 0.2 0
20-11-2019 13.8 (14:40) 9.4 (00:00) 11.6 18.89 (11:50) 15.56 (11:30) 0 0 0 0 0
19-11-2019 11.5 (12:30) 8.9 (00:00) 10.2 10.83 (16:50) 8.61 (16:50) 3 0 0.2 2.6 0.2
18-11-2019 14.1 (15:20) 9.1 (00:00) 11.6 15.28 (00:10) 11.39 (00:10) 5.8 3.4 2.2 0.2 0
17-11-2019 13 (06:50) 9.2 (00:00) 11.1 23.61 (15:30) 18.89 (13:50) 3.6 0.2 0.4 1.6 1.4
16-11-2019 12.2 (13:00) 8.9 (00:00) 10.5 19.72 (15:30) 15.28 (15:30) 2.6 1.2 0 1.4 0
15-11-2019 10.9 (21:10) 7.8 (00:00) 9.3 24.17 (13:50) 16.11 (15:50) 11 2.8 0.8 6 1.4
14-11-2019 11.9 (13:00) 6.5 (00:00) 9.2 33.61 (01:10) 25.28 (01:10) 13.2 4.4 3.4 1.4 4
13-11-2019 13.8 (14:20) 8.3 (00:00) 11.1 28.61 (23:10) 22.5 (20:50) 6.6 0.4 0 0.2 6
12-11-2019 15.2 (18:10) 10.1 (00:00) 12.7 27.5 (19:10) 21.11 (17:20) 18.4 4 0.6 3.4 10.4
11-11-2019 14.6 (05:10) 10.7 (00:00) 12.7 18.33 (02:30) 15 (02:30) 0.4 0.4 0 0 0

Gráficas

Temp. máximas Temp. mínimas Temp. medias Precipitaciones Rachas de viento máximas Velocidades máximas media en intervalos de 10 minutos

Datos horarios

Fecha y hora oficial Temperatura (ºC) Velocidad del viento (km/h) Dirección del viento Racha (km/h) Dirección de racha Precipitación (mm) Presión (hPa) Tendencia (hPa) Humedad (%)
2019-12-10 23:00:00 13.3 62 Oeste 84 Oeste 0 1007.3 -1.7 83
2019-12-10 22:00:00 14 57 Oeste 72 Oeste 0 1007.9 -2 75
2019-12-10 21:00:00 13.9 58 Oeste 73 Oeste 0 1008 -2.1 73
2019-12-10 20:00:00 13.7 51 Oeste 66 Oeste 0 1009 -1.2 69
2019-12-10 19:00:00 14 45 Oeste 63 Sudoeste 0 1009.9 -0.5 57
2019-12-10 18:00:00 14.2 45 Oeste 57 Oeste 0 1010.1 -1 56
2019-12-10 17:00:00 15.4 36 Oeste 62 Oeste 0 1010.2 -2.2 46
2019-12-10 16:00:00 15.2 45 Oeste 66 Oeste 0 1010.4 -3.2 44
2019-12-10 15:00:00 15 53 Oeste 65 Oeste 0 1011.1 -3.7 47
2019-12-10 14:00:00 14.4 43 Oeste 52 Oeste 0 1012.4 -2.9 51
2019-12-10 13:00:00 14 30 Oeste 37 Oeste 0 1013.6 -1.9 60
2019-12-10 12:00:00 13.7 24 Oeste 30 Oeste 0 1014.8 -0.9 49
2019-12-10 11:00:00 11.3 18 Oeste 22 Oeste 0 1015.3 -1 66
2019-12-10 10:00:00 11.2 17 Sudoeste 24 Oeste 0 1015.5 -1.1 62
2019-12-10 09:00:00 11.6 24 Oeste 40 Oeste 0 1015.7 -1.3 59
2019-12-10 08:00:00 11.1 26 Oeste 29 Oeste 0 1016.3 -1.3 64
2019-12-10 07:00:00 10.9 17 Oeste 19 Oeste 0 1016.6 -1.7 73
2019-12-10 06:00:00 11.5 6 Sudoeste 22 Sur 0 1017 -2.2 63
2019-12-10 05:00:00 10.5 18 Sudeste 30 Sudeste 0 1017.6 -2.3 73
2019-12-10 04:00:00 9.8 23 Sudeste 26 Sudeste 0 1018.3 -2 78
2019-12-10 03:00:00 10.2 14 Sudeste 19 Sudoeste 0 1019.2 -1.5 72
2019-12-10 02:00:00 11.6 9 Sudoeste 19 Sur 0 1019.9 -1 68
2019-12-10 01:00:00 10.6 11 Oeste 23 Sudoeste 0 1020.3 -0.9 83
2019-12-10 00:00:00 10.6 22 Oeste 27 Oeste 0 1020.7 -0.9 84
2019-12-09 23:00:00 10.6 19 Oeste 23 Oeste 0 1020.9 -0.5 85
2019-12-09 22:00:00 10.6 10 Oeste 16 Oeste 0 1021.2 0 89
2019-12-09 21:00:00 11.7 7 Oeste 10 Oeste 0 1021.6 0.4 88
2019-12-09 20:00:00 11.1 4 Sudoeste 9 Sudoeste 0 1021.4 0.3 86
2019-12-09 19:00:00 12.1 6 Sur 13 Oeste 0 1021.2 0.4 79
2019-12-09 18:00:00 12.4 11 Oeste 22 Noroeste 0 1021.2 0.3 81
2019-12-09 17:00:00 12.9 13 Noroeste 26 Noroeste 0 1021.1 0.2 80
2019-12-09 16:00:00 13 24 Noroeste 35 Oeste 0 1020.8 -0.6 79
2019-12-09 15:00:00 13.7 26 Oeste 32 Oeste 0 1020.9 -0.9 79
2019-12-09 14:00:00 13.2 24 Oeste 34 Oeste 0 1020.9 -0.6 78
2019-12-09 13:00:00 13.2 26 Oeste 35 Oeste 0 1021.4 0.6 80
2019-12-09 12:00:00 13 23 Oeste 35 Oeste 0 1021.8 1.7 81
2019-12-09 11:00:00 12.8 26 Oeste 32 Oeste 0 1021.5 2.1 81
2019-12-09 10:00:00 12.5 25 Oeste 36 Oeste 0 1020.8 1.9 81
2019-12-09 09:00:00 12.5 28 Oeste 50 Oeste 0 1020.1 2.1 81
2019-12-09 08:00:00 12.9 39 Oeste 59 Oeste 0 1019.4 1.3 80
2019-12-09 07:00:00 12.5 37 Oeste 55 Oeste 0 1018.9 0.9 80
2019-12-09 06:00:00 12.8 49 Oeste 58 Oeste 0 1018 0.7 80
2019-12-09 05:00:00 12.3 42 Oeste 62 Oeste 0 1018.1 1 78
2019-12-09 04:00:00 12 45 Oeste 57 Oeste 0 1018 1 80
2019-12-09 03:00:00 12 48 Oeste 63 Oeste 0 1017.3 0.9 78
2019-12-09 02:00:00 12 53 Oeste 66 Oeste 0 1017.1 0.1 78
2019-12-09 01:00:00 11.7 52 Oeste 61 Oeste 0 1017 0.3 79
2019-12-09 00:00:00 11.6 48 Oeste 58 Oeste 0 1016.4 0.2 77
2019-12-08 23:00:00 12.1 43 Oeste 54 Oeste 0 1017 1 78
2019-12-08 22:00:00 11.9 42 Oeste 49 Oeste 0 1016.7 1.1 78
2019-12-08 21:00:00 11.9 36 Oeste 50 Oeste 0 1016.2 0.9 79
2019-12-08 20:00:00 12.6 46 Oeste 51 Oeste 0 1016 0.8 75
2019-12-08 19:00:00 12.1 33 Oeste 43 Oeste 0 1015.6 1.1 80
2019-12-08 18:00:00 12.5 38 Oeste 44 Oeste 0 1015.3 1.2 78
2019-12-08 17:00:00 13.1 30 Oeste 38 Oeste 0 1015.2 1.5 75
2019-12-08 16:00:00 13.1 33 Oeste 41 Oeste 0 1014.5 0.5 73
2019-12-08 15:00:00 13.3 36 Oeste 49 Oeste 0 1014.1 0.4 74
2019-12-08 14:00:00 13.1 37 Noroeste 44 Noroeste 0 1013.7 0.8 79
2019-12-08 13:00:00 13.1 24 Noroeste 39 Oeste 0.2 1014 2.8 84
2019-12-08 12:00:00 12.6 21 Oeste 31 Noroeste 0 1013.7 3.8 95
2019-12-08 11:00:00 12.8 22 Noroeste 52 Oeste 0.6 1012.9 3.5 95
2019-12-08 10:00:00 14 41 Oeste 51 Oeste 0 1011.2 2.7 94
2019-12-08 09:00:00 14.1 48 Oeste 57 Oeste 1.2 1009.9 1.6 93
2019-12-08 08:00:00 14.1 50 Oeste 59 Oeste 0.4 1009.4 0.8 92
2019-12-08 07:00:00 14.8 53 Oeste 66 Oeste 0 1008.5 -0.7 84
2019-12-08 06:00:00 14.8 53 Oeste 70 Oeste 0 1008.3 -1.3 84
2019-12-08 05:00:00 14.5 57 Oeste 68 Oeste 0 1008.6 -1.3 85
2019-12-08 04:00:00 14.5 50 Oeste 65 Oeste 0 1009.2 -0.9 85
2019-12-08 03:00:00 14.3 48 Oeste 58 Oeste 0 1009.6 -1 87
2019-12-08 02:00:00 14.4 47 Oeste 55 Oeste 0 1009.9 -1 86
2019-12-08 01:00:00 14.3 47 Oeste 55 Oeste 0 1010.1 -0.8 87
2019-12-08 00:00:00 14.3 40 Oeste 48 Oeste 0 1010.6 -0.4 86
2019-12-07 23:00:00 14 25 Oeste 39 Oeste 0 1010.9 -0.2 88
2019-12-07 22:00:00 14.1 24 Oeste 33 Oeste 0 1010.9 -0.2 87
2019-12-07 21:00:00 14 20 Oeste 28 Oeste 0 1011 -0.1 86
2019-12-07 20:00:00 13.8 20 Oeste 28 Oeste 0 1011.1 0.4 87
2019-12-07 19:00:00 14.3 27 Oeste 36 Oeste 0 1011.1 0.6 84
2019-12-07 18:00:00 14.3 20 Oeste 31 Oeste 0 1011.1 0.8 86
2019-12-07 17:00:00 15.7 23 Oeste 33 Oeste 0 1010.7 -0.1 78
2019-12-07 16:00:00 15 29 Oeste 37 Oeste 0 1010.5 -1.1 83
2019-12-07 15:00:00 14.8 36 Oeste 42 Oeste 0 1010.3 -1.7 84
2019-12-07 14:00:00 14.9 33 Oeste 38 Oeste 0 1010.8 -1.6 82
2019-12-07 13:00:00 14.4 29 Oeste 41 Oeste 0 1011.6 -0.4 85
2019-12-07 12:00:00 14.6 37 Oeste 44 Sudoeste 0 1012 0.9 83
2019-12-07 11:00:00 13.2 31 Oeste 35 Sudoeste 0 1012.4 1.3 88
2019-12-07 10:00:00 12.7 27 Oeste 38 Oeste 0 1012 1.3 91
2019-12-07 09:00:00 13.3 36 Oeste 45 Oeste 0 1011.1 0.6 86
2019-12-07 08:00:00 13.4 32 Oeste 39 Oeste 0 1011.1 0.4 85
2019-12-07 07:00:00 13.4 31 Oeste 43 Oeste 0 1010.7 -0.4 84
2019-12-07 06:00:00 13.1 32 Oeste 44 Oeste 0 1010.5 -0.5 85
2019-12-07 05:00:00 12.9 34 Oeste 45 Oeste 0 1010.7 -0.6 84
2019-12-07 04:00:00 13 38 Oeste 46 Oeste 0 1011.1 -0.6 82
2019-12-07 03:00:00 13.1 32 Oeste 40 Oeste 0 1011 -0.8 80
2019-12-07 02:00:00 13 33 Oeste 41 Oeste 0 1011.3 -0.4 79
2019-12-07 01:00:00 12.8 34 Oeste 41 Oeste 0 1011.7 -0.2 79
2019-12-07 00:00:00 12.7 31 Oeste 42 Oeste 0 1011.8 0 80
2019-12-06 23:00:00 12.4 32 Oeste 40 Oeste 0 1011.7 0.2 79
2019-12-06 22:00:00 12.5 30 Oeste 44 Oeste 0 1011.9 0.7 80
2019-12-06 21:00:00 12.4 33 Oeste 42 Sudoeste 0 1011.8 1.2 80
2019-12-06 20:00:00 11.9 33 Oeste 37 Oeste 0 1011.5 0.6 82
2019-12-06 19:00:00 12.1 31 Oeste 39 Oeste 0 1011.2 0.5 83
2019-12-06 18:00:00 12.3 30 Oeste 37 Oeste 0 1010.6 -0.7 81
2019-12-06 17:00:00 13.5 27 Oeste 33 Oeste 0 1010.9 -0.6 76
2019-12-06 16:00:00 13.1 32 Oeste 35 Oeste 0 1010.7 -1.7 77
2019-12-06 15:00:00 12.9 24 Oeste 31 Oeste 0 1011.3 -1.4 78
2019-12-06 14:00:00 12.9 25 Oeste 34 Oeste 0 1011.5 -1.2 78
2019-12-06 13:00:00 12.5 20 Oeste 23 Oeste 0 1012.4 -0.4 78
2019-12-06 12:00:00 12.1 17 Oeste 20 Oeste 0 1012.7 0.3 79
2019-12-06 11:00:00 11.8 4 Sudoeste 18 Sudoeste 0 1012.7 1 82
2019-12-06 10:00:00 11.3 14 Sudoeste 18 Oeste 0 1012.8 1.4 85
2019-12-06 09:00:00 11.3 12 Oeste 14 Oeste 0 1012.4 1 88
2019-12-06 08:00:00 11.5 5 Oeste 13 Sudeste 0 1011.7 -0.3 86
2019-12-06 07:00:00 11.2 8 Sur 16 Sudeste 0 1011.4 -0.5 86
2019-12-06 06:00:00 11.8 11 Sudeste 14 Sudeste 0 1011.4 -0.7 85
2019-12-06 05:00:00 12.1 9 Este 17 Sudeste 0 1012 -0.4 82
2019-12-06 04:00:00 12 10 Sudeste 19 Sudeste 0 1011.9 -1 80
2019-12-06 03:00:00 11.9 11 Sudeste 22 Este 0 1012.1 -0.7 83
2019-12-06 02:00:00 12.2 13 Este 28 Este 0 1012.4 -0.5 89
2019-12-06 01:00:00 12.8 21 Este 36 Este 0 1012.9 0.1 82
2019-12-06 00:00:00 12.7 27 Este 35 Este 0 1012.8 0 83
2019-12-05 23:00:00 12.8 27 Este 39 Este 0 1012.9 0.4 81
2019-12-05 22:00:00 12.5 28 Este 39 Este 0 1012.8 0.5 81
2019-12-05 21:00:00 12.7 30 Este 44 Este 0 1012.8 0.4 81
2019-12-05 20:00:00 12.6 31 Este 44 Este 0 1012.5 0.6 80
2019-12-05 19:00:00 12.5 31 Este 49 Este 0 1012.3 0.3 80
2019-12-05 18:00:00 12.5 39 Este 50 Este 0 1012.4 -0.1 81
2019-12-05 17:00:00 12.1 33 Este 53 Este 0 1011.9 -0.7 86
2019-12-05 16:00:00 11.9 40 Nordeste 54 Nordeste 0 1012 -1.2 85
2019-12-05 15:00:00 12.5 45 Nordeste 54 Este 0 1012.5 -0.8 82
2019-12-05 14:00:00 12.4 44 Este 57 Nordeste 0 1012.6 -0.2 81
2019-12-05 13:00:00 12.3 41 Nordeste 60 Este 0 1013.2 1.5 81
2019-12-05 12:00:00 12.1 43 Nordeste 57 Este 0 1013.3 2.3 86
2019-12-05 11:00:00 12.2 45 Este 61 Nordeste 0 1012.8 2 83
2019-12-05 10:00:00 12.4 50 Este 61 Nordeste 0 1011.7 1 80
2019-12-05 09:00:00 12 50 Este 62 Este 0 1011 0.8 77
2019-12-05 08:00:00 11.9 49 Este 62 Este 0 1010.8 0.7 74
2019-12-05 07:00:00 11.9 50 Este 62 Este 0 1010.7 0.3 74
2019-12-05 06:00:00 11.9 50 Este 65 Este 0 1010.2 0.2 75
2019-12-05 05:00:00 12.1 49 Este 60 Este 0 1010.1 0.3 77
2019-12-05 04:00:00 11.4 23 Este 36 Este 0.2 1010.4 0.9 86
2019-12-05 03:00:00 11.5 14 Este 48 Este 0 1010 1 82
2019-12-05 02:00:00 11.8 17 Este 26 Este 0 1009.8 0.8 79
2019-12-05 01:00:00 12.4 27 Nordeste 53 Nordeste 0 1009.5 0.8 77
2019-12-05 00:00:00 12.2 35 Nordeste 44 Este 0 1009 0.8 72
2019-12-04 23:00:00 11.7 27 Este 40 Nordeste 0 1009 1.5 73
2019-12-04 22:00:00 10.9 10 Este 16 Este 0 1008.7 1.9 78
2019-12-04 21:00:00 10.1 13 Este 19 Este 0 1008.2 2.2 78
2019-12-04 20:00:00 9.9 15 Este 24 Este 0 1007.5 1.8 77
2019-12-04 19:00:00 10.4 18 Este 29 Este 0 1006.8 1.5 74
2019-12-04 18:00:00 10.3 20 Este 27 Este 0 1006 1.2 71
2019-12-04 17:00:00 10 15 Este 26 Este 0 1005.7 0.8 64
2019-12-04 16:00:00 10.3 17 Este 23 Este 0 1005.3 0.4 64
2019-12-04 15:00:00 10.6 11 Este 17 Este 0 1004.8 -0.1 64
2019-12-04 14:00:00 11.1 12 Este 17 Este 0 1004.9 0.2 58
2019-12-04 13:00:00 10.8 11 Sudeste 16 Sudeste 0 1004.9 0.4 54
2019-12-04 12:00:00 10.4 11 Sudeste 15 Sudeste 0 1004.9 1.1 50
2019-12-04 11:00:00 9.4 6 Sudeste 10 Oeste 0 1004.7 1.6 59
2019-12-04 10:00:00 8.3 4 Sudoeste 15 Sudoeste 0 1004.5 2 62
2019-12-04 09:00:00 7.5 11 Sudoeste 20 Oeste 0 1003.8 1.5 61
2019-12-04 08:00:00 6.6 10 Oeste 23 Oeste 0 1003.1 0.6 68
2019-12-04 07:00:00 7.5 13 Oeste 19 Oeste 0 1002.5 -0.3 63
2019-12-04 06:00:00 6.5 9 Sudoeste 15 Oeste 0 1002.3 -0.7 76
2019-12-04 05:00:00 7 12 Oeste 18 Oeste 0 1002.5 -0.9 78
2019-12-04 04:00:00 7.1 13 Sudeste 20 Sudeste 0 1002.8 -0.9 72
2019-12-04 03:00:00 7 16 Sudeste 24 Sudeste 0 1003 -1.2 74
2019-12-04 02:00:00 7.6 15 Sudeste 29 Sudeste 0 1003.4 -0.7 72
2019-12-04 01:00:00 8.3 21 Sudeste 31 Sudeste 0 1003.7 -0.3 70
2019-12-04 00:00:00 9.2 20 Sudeste 49 Este 0 1004.2 0 72
2019-12-03 23:00:00 9.8 34 Este 54 Este 0 1004.1 0.3 64
2019-12-03 22:00:00 9.9 41 Este 57 Este 0 1004 -0.8 66
2019-12-03 21:00:00 10.1 45 Este 65 Este 0 1004.2 -1.2 64
2019-12-03 20:00:00 10.2 49 Este 68 Este 0 1003.8 -2 63
2019-12-03 19:00:00 10.2 44 Este 61 Este 0 1004.8 -1.1 61
2019-12-03 18:00:00 10.2 40 Este 59 Este 0 1005.4 -0.7 63
2019-12-03 17:00:00 10.4 39 Este 60 Este 0 1005.8 -1.3 62
2019-12-03 16:00:00 10.6 46 Este 63 Este 0 1005.9 -2.1 61
2019-12-03 15:00:00 10.8 47 Este 68 Este 0 1006.1 -3.3 62
2019-12-03 14:00:00 11 45 Este 68 Este 0 1007.1 -2.6 60
2019-12-03 13:00:00 10.9 50 Este 70 Este 0 1008 -1.6 60
2019-12-03 12:00:00 10.9 50 Este 72 Este 0 1009.4 -0.4 60
2019-12-03 11:00:00 10.6 49 Este 73 Este 0 1009.7 0 63
2019-12-03 10:00:00 10.5 53 Este 72 Este 0 1009.6 -0.4 61
2019-12-03 09:00:00 10.4 51 Este 72 Este 0 1009.8 -0.6 61
2019-12-03 08:00:00 10.4 55 Este 74 Este 0 1009.7 -0.7 63
2019-12-03 07:00:00 10.5 54 Este 69 Este 0 1010 -1.1 60
2019-12-03 06:00:00 10.5 50 Este 71 Este 0 1010.4 -0.9 58
2019-12-03 05:00:00 10.5 52 Este 77 Este 0 1010.4 -1.9 64
2019-12-03 04:00:00 10.6 55 Este 78 Este 0 1011.1 -1.7 66
2019-12-03 03:00:00 10.7 63 Este 76 Este 0 1011.3 -1.9 69
2019-12-03 02:00:00 11.3 50 Este 73 Este 0 1012.3 -1.3 66
2019-12-03 01:00:00 11.2 50 Este 71 Este 0 1012.8 -0.9 59
2019-12-03 00:00:00 11.3 48 Este 68 Este 0 1013.2 -0.6 64
2019-12-02 23:00:00 11.3 46 Este 74 Este 0 1013.6 0 67
2019-12-02 22:00:00 11 49 Este 79 Este 0 1013.7 0.4 63
2019-12-02 21:00:00 10.8 55 Este 74 Este 0 1013.8 1.2 61
2019-12-02 20:00:00 10.7 52 Este 77 Este 0 1013.6 0.7 68
2019-12-02 19:00:00 10.2 60 Este 82 Este 0 1013.3 0.6 64
2019-12-02 18:00:00 10.4 63 Este 81 Este 0 1012.6 -0.3 67
2019-12-02 17:00:00 10.6 58 Este 78 Nordeste 0 1012.9 -0.3 66
2019-12-02 16:00:00 10.8 60 Este 77 Este 0 1012.7 -1.5 67
2019-12-02 15:00:00 10.9 60 Este 76 Nordeste 0.2 1012.9 -1.5 67
2019-12-02 14:00:00 10.9 59 Este 77 Nordeste 0 1013.2 -0.7 68
2019-12-02 13:00:00 10.9 57 Este 74 Este 0 1014.2 0.6 68
2019-12-02 12:00:00 10.6 60 Este 80 Este 0 1014.4 1.5 65
2019-12-02 11:00:00 10.6 61 Este 80 Este 0 1013.9 1.4 69
2019-12-02 10:00:00 10.6 54 Nordeste 77 Nordeste 0 1013.6 2 67
2019-12-02 09:00:00 10.7 50 Nordeste 72 Nordeste 0 1012.9 2 71
2019-12-02 08:00:00 10.7 43 Nordeste 72 Nordeste 0 1012.5 2.4 74
2019-12-02 07:00:00 10.9 50 Nordeste 79 Nordeste 0 1011.6 1 75
2019-12-02 06:00:00 10.9 47 Nordeste 76 Nordeste 0 1010.9 0.9 75
2019-12-02 05:00:00 11.2 49 Nordeste 82 Nordeste 0 1010.1 -0.5 75
2019-12-02 04:00:00 11.3 49 Nordeste 80 Nordeste 0 1010.6 -0.4 77
2019-12-02 03:00:00 10.8 44 Nordeste 76 Nordeste 0.2 1010 -0.3 82
2019-12-02 02:00:00 10.4 44 Nordeste 69 Nordeste 0.2 1010.6 0 82
2019-12-02 01:00:00 10.7 30 Nordeste 69 Nordeste 0.2 1011 0.6 79
2019-12-02 00:00:00 10.9 42 Nordeste 74 Nordeste 0 1010.3 0.3 70
2019-12-01 23:00:00 11.6 37 Nordeste 72 Nordeste 0 1010.6 1.1 65
2019-12-01 22:00:00 11.8 38 Nordeste 63 Nordeste 0 1010.4 1.6 66
2019-12-01 21:00:00 11.3 33 Nordeste 65 Nordeste 0 1010 2.3 79
2019-12-01 20:00:00 12 35 Nordeste 57 Nordeste 0 1009.5 2.8 66
2019-12-01 19:00:00 11.6 35 Nordeste 59 Nordeste 0 1008.8 3.1 71
2019-12-01 18:00:00 11.7 30 Nordeste 67 Nordeste 0 1007.7 2.6 69
2019-12-01 17:00:00 11.6 41 Nordeste 68 Nordeste 0 1006.7 1.6 69
2019-12-01 16:00:00 11.6 40 Nordeste 72 Nordeste 0 1005.7 1 76
2019-12-01 15:00:00 11.5 38 Nordeste 69 Nordeste 0.2 1005.1 0.4 85
2019-12-01 14:00:00 12.2 25 Nordeste 55 Nordeste 0 1005.1 1 83
2019-12-01 13:00:00 11.5 26 Nordeste 46 Nordeste 1.2 1004.7 2 89
2019-12-01 12:00:00 11.3 31 Nordeste 45 Nordeste 1.4 1004.7 3.3 88
2019-12-01 11:00:00 11.7 31 Nordeste 51 Nordeste 0.6 1004.1 3.6 85
2019-12-01 10:00:00 12.1 26 Nordeste 45 Norte 0 1002.7 3.8 84
2019-12-01 09:00:00 12 30 Norte 48 Norte 0.2 1001.4 3.7 75
2019-12-01 08:00:00 10.5 11 Este 26 Este 0.2 1000.5 3.5 89
2019-12-01 07:00:00 11.1 18 Sudeste 32 Sudeste 0 998.9 2.3 83
2019-12-01 06:00:00 11 18 Sudeste 31 Sudeste 0 997.7 1.7 77
2019-12-01 05:00:00 11.1 22 Sudeste 27 Sudeste 0 997 1.1 77
2019-12-01 04:00:00 11.5 17 Sudeste 33 Sudeste 0 996.6 0.3 74
2019-12-01 03:00:00 11.7 20 Sudeste 39 Sur 0 996 -1 68
2019-12-01 02:00:00 11.9 22 Sur 37 Sudoeste 0 995.9 -2.1 65
2019-12-01 01:00:00 11.7 26 Sudoeste 41 Sur 0 996.3 -2.3 68
2019-12-01 00:00:00 12 24 Sudoeste 42 Sur 0 997 -1.8 69
2019-11-30 23:00:00 11.9 18 Sudoeste 42 Sudoeste 0 998 -1.1 71
2019-11-30 22:00:00 11.9 22 Sudoeste 45 Sudoeste 0 998.6 -1.2 69
2019-11-30 21:00:00 11.9 31 Sudoeste 62 Sudoeste 0 998.8 -1.1 75
2019-11-30 20:00:00 11.7 31 Sudoeste 49 Sudoeste 0 999.1 -0.9 82
2019-11-30 19:00:00 11.5 35 Sudoeste 60 Oeste 0 999.8 -1.2 84
2019-11-30 18:00:00 10.5 30 Sudoeste 71 Oeste 1.4 999.9 -1.2 87
2019-11-30 17:00:00 10.7 45 Oeste 51 Sudoeste 3.2 1000 -1.3 87
2019-11-30 16:00:00 9.1 26 Oeste 63 Noroeste 1.4 1001 -0.6 89
2019-11-30 15:00:00 11.5 34 Oeste 94 Oeste 0.8 1001.1 -0.6 77
2019-11-30 14:00:00 10.4 59 Oeste 76 Oeste 0.6 1001.3 -0.5 90
2019-11-30 13:00:00 9.9 48 Oeste 95 Oeste 2.2 1001.6 -0.1 89
2019-11-30 12:00:00 9.6 69 Oeste 96 Oeste 0.2 1001.7 0.4 87
2019-11-30 11:00:00 13.1 51 Oeste 61 Oeste 0 1001.8 0.8 77
2019-11-30 10:00:00 12.8 53 Oeste 60 Oeste 0 1001.7 1.1 78
2019-11-30 09:00:00 12.5 48 Oeste 62 Oeste 0 1001.3 0.4 80
2019-11-30 08:00:00 13.1 51 Oeste 74 Oeste 0 1001 0.4 78
2019-11-30 07:00:00 13.6 46 Oeste 68 Oeste 0 1000.6 1.2 82
2019-11-30 06:00:00 13.2 44 Oeste 64 Oeste 0.2 1000.9 1.3 86
2019-11-30 05:00:00 12.6 60 Oeste 89 Oeste 0.4 1000.6 0.2 92
2019-11-30 04:00:00 15 63 Oeste 77 Oeste 0.6 999.4 -1.6 92
2019-11-30 03:00:00 15.5 48 Oeste 59 Oeste 0.4 999.6 -2.4 92
2019-11-30 02:00:00 14.6 28 Oeste 42 Sudoeste 0.2 1000.4 -2.5 93
2019-11-30 01:00:00 15.6 23 Sudoeste 44 Sur 0.4 1001 -3.2 83
2019-11-30 00:00:00 15.1 21 Sudoeste 43 Sur 0 1002 -3.1 80
2019-11-29 23:00:00 12.9 18 Sudeste 31 Sudeste 0 1002.9 -3.3 76
2019-11-29 22:00:00 13 26 Sudeste 34 Sudeste 0 1004.2 -2.6 72
2019-11-29 21:00:00 13.1 25 Sudeste 35 Sudeste 0 1005.1 -2.1 73
2019-11-29 20:00:00 13.5 25 Sudeste 34 Sudeste 0 1006.2 -0.8 73
2019-11-29 19:00:00 12.9 19 Sudeste 24 Sudeste 0 1006.8 0 76
2019-11-29 18:00:00 13.3 13 Sudeste 16 Sudeste 0 1007.2 0.1 73
2019-11-29 17:00:00 13.9 9 Sudeste 12 Sudeste 0 1007 -0.5 70
2019-11-29 16:00:00 14.6 6 Este 8 Este 0 1006.8 -1.3 69
2019-11-29 15:00:00 14.4 4 Nordeste 9 Noroeste 0 1007.1 -1.5 72
2019-11-29 14:00:00 14.5 6 Oeste 15 Oeste 0 1007.5 -0.9 72
2019-11-29 13:00:00 15.2 13 Oeste 20 Oeste 0 1008.1 0.3 74
2019-11-29 12:00:00 13.7 7 Sudoeste 17 Oeste 0 1008.6 1.5 77
2019-11-29 11:00:00 13.4 16 Oeste 27 Oeste 0 1008.4 1.8 82
2019-11-29 10:00:00 12.8 12 Sudoeste 22 Oeste 0 1007.8 1.8 78
2019-11-29 09:00:00 12.8 17 Sudoeste 26 Oeste 0 1007.1 1.3 77
2019-11-29 08:00:00 13 24 Oeste 33 Oeste 0 1006.6 0.9 81
2019-11-29 07:00:00 12.7 23 Oeste 37 Sudoeste 0 1006 0.9 85
2019-11-29 06:00:00 13 30 Oeste 41 Oeste 0 1005.8 0.8 83
2019-11-29 05:00:00 12.7 27 Oeste 31 Oeste 0 1005.7 1.4 89
2019-11-29 04:00:00 12.9 25 Oeste 29 Oeste 0 1005.1 0.9 89
2019-11-29 03:00:00 13 23 Oeste 29 Oeste 0 1005 1.3 90
2019-11-29 02:00:00 13.1 24 Oeste 30 Oeste 0 1004.3 1.2 89
2019-11-29 01:00:00 13.1 24 Oeste 32 Sudoeste 0 1004.2 2.1 88
2019-11-29 00:00:00 12.9 26 Oeste 34 Oeste 0 1003.7 2.5 89
2019-11-28 23:00:00 13 24 Sudoeste 30 Sudoeste 0 1003.1 3.4 88
2019-11-28 22:00:00 13.1 26 Oeste 34 Oeste 0 1002.1 3.3 91
2019-11-28 21:00:00 13.1 23 Oeste 30 Oeste 0 1001.2 3.7 93
2019-11-28 20:00:00 12.8 18 Oeste 22 Oeste 0.4 999.7 3.1 96
2019-11-28 19:00:00 12.2 3 Norte 24 Nordeste 2.2 998.8 2 96
2019-11-28 18:00:00 12.4 12 Nordeste 18 Nordeste 1.4 997.5 -0.5 92
2019-11-28 17:00:00 13.1 3 Oeste 21 Sur 0 996.6 -2.5 87
2019-11-28 16:00:00 12.5 14 Sur 37 Sur 0.2 996.8 -2.1 88
2019-11-28 15:00:00 12.8 27 Sudoeste 44 Sudoeste 0.2 998 -1.9 79
2019-11-28 14:00:00 12.9 34 Oeste 63 Oeste 0 999.1 -0.3 87
2019-11-28 13:00:00 13.6 50 Oeste 65 Oeste 0 998.9 -0.8 74
2019-11-28 12:00:00 13.3 33 Oeste 55 Oeste 0 999.9 0.6 78
2019-11-28 11:00:00 13.1 45 Oeste 53 Oeste 0 999.4 0.3 80
2019-11-28 10:00:00 12.8 38 Oeste 55 Oeste 0 999.7 0.8 82
2019-11-28 09:00:00 12.6 39 Oeste 47 Sudoeste 0 999.3 0.9 82
2019-11-28 08:00:00 12.7 35 Oeste 50 Oeste 0 999.1 1.7 81
2019-11-28 07:00:00 12.8 34 Oeste 50 Oeste 0 998.9 0.9 84
2019-11-28 06:00:00 12.8 42 Oeste 57 Oeste 0 998.4 0.5 79
2019-11-28 05:00:00 12.9 48 Oeste 60 Oeste 0 997.4 -0.4 82
2019-11-28 04:00:00 12.9 42 Oeste 60 Oeste 0 998 0.4 85
2019-11-28 03:00:00 13.1 39 Oeste 64 Oeste 0 997.9 0.9 83
2019-11-28 02:00:00 13.1 53 Oeste 74 Oeste 0 997.8 1 79
2019-11-28 01:00:00 13.5 53 Oeste 65 Oeste 0 997.6 1.4 81
2019-11-28 00:00:00 13.2 57 Oeste 69 Oeste 0 997 1 84
2019-11-27 23:00:00 12.8 55 Oeste 71 Oeste 0 996.8 1.1 88
2019-11-27 22:00:00 12.8 52 Oeste 64 Sudoeste 0 996.2 0.1 84
2019-11-27 21:00:00 12.9 55 Oeste 68 Oeste 0 996 0.7 83
2019-11-27 20:00:00 12.6 53 Oeste 63 Oeste 0 995.7 0.9 86
2019-11-27 19:00:00 12.5 48 Oeste 63 Oeste 0 996.1 1.3 86
2019-11-27 18:00:00 13 60 Oeste 75 Oeste 0 995.3 0.6 83
2019-11-27 17:00:00 13.4 58 Oeste 72 Oeste 0 994.8 -0.1 81
2019-11-27 16:00:00 12.5 53 Oeste 65 Oeste 0 994.8 -0.1 86
2019-11-27 15:00:00 11.6 54 Oeste 83 Oeste 0.8 994.7 0.2 88
2019-11-27 14:00:00 12.2 54 Oeste 82 Oeste 0.4 994.9 0.1 89
2019-11-27 06:00:00 12.9 64 Oeste 76 Oeste 0 992.2 0.8 81
2019-11-27 05:00:00 13.3 66 Oeste 90 Oeste 0 992.3 1.5 79
2019-11-27 04:00:00 13.1 71 Oeste 97 Oeste 0 991.7 1.4 79
2019-11-27 03:00:00 13 73 Oeste 91 Oeste 0.2 991.4 1.7 81
2019-11-27 02:00:00 13 64 Oeste 91 Oeste 0 990.8 1.6 83
2019-11-27 01:00:00 13.3 70 Oeste 92 Oeste 0.2 990.3 1.4 83
2019-11-27 00:00:00 12.3 68 Oeste 91 Oeste 0.8 989.7 2.1 89
2019-11-26 23:00:00 12 60 Oeste 135 Noroeste 3.8 989.2 2.5 88
2019-11-26 22:00:00 11.1 57 Oeste 99 Sudoeste 1.6 988.9 3.3 92
2019-11-26 21:00:00 13.4 77 Oeste 103 Oeste 0 987.6 2.3 75
2019-11-26 20:00:00 13.6 83 Oeste 116 Oeste 0 986.7 0.9 76
2019-11-26 19:00:00 13.5 87 Oeste 113 Oeste 0 985.6 0.5 75
2019-11-26 18:00:00 12.7 69 Oeste 105 Oeste 0.8 985.3 -0.2 82
2019-11-26 17:00:00 12.8 67 Oeste 99 Oeste 0.2 985.8 0.2 88
2019-11-26 16:00:00 14.2 69 Oeste 126 Oeste 2.6 985.1 -2.8 85
2019-11-26 15:00:00 14.4 47 Oeste 86 Oeste 0.8 985.5 -4.5 89
2019-11-26 14:00:00 16.8 68 Sudoeste 90 Sudoeste 0 985.6 -5.1 66
2019-11-26 13:00:00 16.5 50 Oeste 75 Sudoeste 0 987.9 -3.2 71
2019-11-26 12:00:00 15.7 43 Oeste 86 Oeste 0 990 -1.2 77
2019-11-26 11:00:00 16.5 51 Oeste 76 Oeste 0 990.7 -0.9 69
2019-11-26 10:00:00 16.3 62 Oeste 76 Sudoeste 0 991.1 -0.3 71
2019-11-26 09:00:00 15.8 55 Oeste 76 Oeste 0 991.2 -1 74
2019-11-26 08:00:00 15.7 53 Oeste 66 Oeste 0 991.6 -0.9 74
2019-11-26 07:00:00 15.9 59 Oeste 81 Oeste 0 991.4 -2.1 74
2019-11-26 06:00:00 15.8 62 Oeste 78 Oeste 0.2 992.2 -1.1 79
2019-11-26 05:00:00 15.8 57 Oeste 74 Oeste 0 992.5 -0.6 84
2019-11-26 04:00:00 15.1 41 Oeste 54 Oeste 0.4 993.5 0.3 94
2019-11-26 03:00:00 15.7 45 Oeste 68 Sudoeste 0 993.3 0 89
2019-11-26 02:00:00 16.8 51 Oeste 79 Oeste 0 993.1 -1.5 78
2019-11-26 01:00:00 16.9 63 Sudoeste 93 Oeste 0 993.2 -2.5 74
2019-11-26 00:00:00 17.4 66 Oeste 84 Oeste 0 993.3 -3.8 68
2019-11-25 23:00:00 17.2 38 Sudoeste 64 Sudoeste 0 994.6 -3 64
2019-11-25 22:00:00 16.6 46 Sudoeste 77 Sudoeste 0 995.7 -3.3 65
2019-11-25 21:00:00 15.5 39 Oeste 54 Oeste 0 997.1 -2 70
2019-11-25 20:00:00 15 36 Sudoeste 63 Sudoeste 0 997.6 -1.5 69
2019-11-25 19:00:00 14.5 26 Sudoeste 53 Oeste 0 999 -0.3 70
2019-11-25 18:00:00 14.3 39 Oeste 55 Oeste 0 999.1 -0.1 77
2019-11-25 17:00:00 14.5 38 Oeste 47 Oeste 0 999.1 -0.7 78
2019-11-25 16:00:00 14.4 38 Oeste 52 Oeste 0 999.3 -0.8 78
2019-11-25 15:00:00 14.4 42 Oeste 55 Oeste 0 999.2 -1.2 75
2019-11-25 14:00:00 13.8 37 Oeste 54 Oeste 0 999.8 0.1 82
2019-11-25 13:00:00 13.7 39 Oeste 58 Oeste 0 1000.1 1.6 82
2019-11-25 12:00:00 13.4 36 Oeste 55 Oeste 0 1000.4 2.3 88
2019-11-25 11:00:00 13.8 46 Oeste 64 Oeste 0 999.7 2.4 81
2019-11-25 10:00:00 13.6 54 Oeste 66 Oeste 0 998.5 2.3 79
2019-11-25 09:00:00 13.7 49 Oeste 66 Oeste 0 998.1 3.1 78
2019-11-25 08:00:00 13.8 50 Oeste 67 Oeste 0 997.3 2.5 80
2019-11-25 07:00:00 13.8 58 Oeste 86 Oeste 0 996.2 1 81
2019-11-25 06:00:00 13.7 68 Oeste 82 Oeste 0 995 1.3 81
2019-11-25 05:00:00 13 67 Oeste 85 Oeste 1 994.8 1 88
2019-11-25 04:00:00 13.9 58 Oeste 88 Oeste 0.2 995.2 1.2 84
2019-11-25 03:00:00 14.8 74 Oeste 89 Oeste 0 993.7 -0.2 79
2019-11-25 02:00:00 14.4 65 Oeste 81 Oeste 0 993.8 0.5 82
2019-11-25 01:00:00 14.4 65 Oeste 80 Oeste 0 994 1.3 86
2019-11-25 00:00:00 13.4 63 Oeste 78 Oeste 1 993.9 1.2 92
2019-11-24 23:00:00 15.7 53 Oeste 73 Oeste 0 993.3 0.8 82
2019-11-24 22:00:00 15.8 59 Oeste 84 Oeste 0.2 992.7 -0.2 82
2019-11-24 21:00:00 15.4 55 Oeste 72 Oeste 0 992.7 1.2 84
2019-11-24 20:00:00 15.4 56 Oeste 71 Oeste 0 992.5 0.2 83
2019-11-24 19:00:00 15 55 Sudoeste 78 Sudoeste 0 992.9 1.3 81
2019-11-24 18:00:00 14 55 Sudoeste 72 Sudoeste 0.4 991.5 -0.6 90
2019-11-24 17:00:00 14.8 58 Oeste 90 Sudoeste 0 992.3 -1.7 83
2019-11-24 16:00:00 15.9 64 Oeste 92 Sudoeste 0 991.6 -4 73
2019-11-24 15:00:00 16 65 Sudoeste 98 Oeste 0 992.1 -4.7 68
2019-11-24 14:00:00 14.7 55 Oeste 80 Oeste 0 994 -3.7 73
2019-11-24 13:00:00 14.8 49 Oeste 79 Oeste 0 995.6 -3.5 70
2019-11-24 12:00:00 14.3 48 Sudoeste 64 Sudoeste 0 996.8 -2.5 68
2019-11-24 11:00:00 12.9 47 Oeste 63 Oeste 0 997.7 -2.1 73
2019-11-24 10:00:00 12.3 28 Sudoeste 49 Sudoeste 0 999.1 -0.8 75
2019-11-24 09:00:00 11.5 32 Sudoeste 44 Oeste 0 999.3 -0.5 76
2019-11-24 08:00:00 11.3 32 Oeste 44 Oeste 0 999.8 0 77
2019-11-24 07:00:00 11.1 35 Oeste 54 Sudoeste 0 999.9 -0.3 78
2019-11-24 06:00:00 11.2 43 Oeste 60 Oeste 0 999.8 -0.5 77
2019-11-24 05:00:00 11 46 Oeste 59 Oeste 0 999.8 -0.4 78
2019-11-24 04:00:00 10.9 48 Oeste 62 Oeste 0 1000.2 0.2 82
2019-11-24 03:00:00 10.9 40 Oeste 52 Sudoeste 0.2 1000.3 0.3 87
2019-11-24 02:00:00 11.5 39 Oeste 59 Oeste 0 1000.2 0.7 83
2019-11-24 01:00:00 12.5 44 Oeste 60 Oeste 0 1000 0.4 78
2019-11-24 00:00:00 12.1 44 Oeste 62 Oeste 0 1000 1.2 82
2019-11-23 23:00:00 12.7 53 Oeste 59 Oeste 0 999.5 1 72
2019-11-23 22:00:00 11.9 46 Oeste 69 Noroeste 0.4 999.6 2 86
2019-11-23 21:00:00 12.4 45 Noroeste 69 Oeste 0 998.8 1.9 81
2019-11-23 20:00:00 13 59 Oeste 68 Oeste 0 998.5 2.4 75
2019-11-23 19:00:00 12.6 58 Oeste 74 Oeste 0.2 997.6 2.3 76
2019-11-23 18:00:00 12.7 59 Oeste 68 Oeste 0 996.9 1.9 74
2019-11-23 17:00:00 13 57 Oeste 66 Oeste 0 996.1 1.9 74
2019-11-23 16:00:00 12.9 58 Oeste 69 Oeste 0.2 995.3 1.1 72
2019-11-23 15:00:00 12.9 57 Oeste 79 Oeste 0 995 1.9 75
2019-11-23 14:00:00 12.8 60 Oeste 69 Oeste 0 994.2 1.6 74
2019-11-23 13:00:00 12.7 53 Oeste 68 Noroeste 0.6 994.2 2.6 74
2019-11-23 12:00:00 12.9 61 Noroeste 85 Noroeste 0.4 993.1 3.2 69
2019-11-23 11:00:00 12.9 56 Oeste 73 Noroeste 1 992.6 4.4 67
2019-11-23 10:00:00 12.8 53 Noroeste 72 Noroeste 0 991.6 3.6 69
2019-11-23 09:00:00 12.6 49 Noroeste 76 Noroeste 0 989.9 3.2 71
2019-11-23 08:00:00 12.8 56 Noroeste 78 Noroeste 0.2 988.2 3 65
2019-11-23 07:00:00 12.3 49 Noroeste 87 Noroeste 0.8 988 3.7 69
2019-11-23 06:00:00 12.5 55 Noroeste 75 Noroeste 0.2 986.7 4.1 68
2019-11-23 05:00:00 12.3 57 Noroeste 82 Noroeste 0 985.2 6.4 67
2019-11-23 04:00:00 12.1 48 Noroeste 83 Noroeste 0.2 984.3 6.4 68
2019-11-23 03:00:00 12 58 Noroeste 102 Noroeste 5 982.6 6 66
2019-11-23 02:00:00 12 86 Noroeste 103 Noroeste 5.4 978.8 4.9 71
2019-11-23 01:00:00 12 70 Noroeste 108 Noroeste 4.4 977.9 5.9 82
2019-11-23 00:00:00 11.5 68 Noroeste 112 Noroeste 7.8 976.6 5.8 85
2019-11-22 23:00:00 12.1 62 Noroeste 104 Noroeste 5 973.9 4.6 86
2019-11-22 22:00:00 12.2 75 Noroeste 98 Noroeste 0.2 972 3.6 86
2019-11-22 21:00:00 10.8 70 Oeste 85 Noroeste 2.6 970.8 2.9 95
2019-11-22 20:00:00 11.9 73 Oeste 95 Oeste 0.4 969.3 0.6 92
2019-11-22 19:00:00 12.7 77 Oeste 99 Oeste 0.6 968.4 -0.6 86
2019-11-22 18:00:00 11.7 54 Oeste 80 Oeste 1 967.9 -1.7 93
2019-11-22 17:00:00 11.5 45 Oeste 82 Oeste 0 968.7 -1.3 86
2019-11-22 16:00:00 12.9 55 Oeste 82 Oeste 0 969 -1.4 80
2019-11-22 15:00:00 12.5 55 Oeste 79 Oeste 0 969.6 -1.8 84
2019-11-22 14:00:00 12.4 66 Oeste 86 Oeste 0.6 970 -0.6 90
2019-11-22 13:00:00 13.8 62 Oeste 81 Oeste 0 970.4 -0.1 81
2019-11-22 12:00:00 12.5 44 Oeste 57 Sudoeste 0.6 971.4 0.5 93
2019-11-22 11:00:00 12.1 13 Oeste 49 Sur 4.2 970.6 -0.9 95
2019-11-22 10:00:00 12.4 41 Sur 67 Oeste 3.2 970.5 -2.7 84
2019-11-22 09:00:00 12.6 41 Sudoeste 91 Sudoeste 0.2 970.9 -4.6 80
2019-11-22 08:00:00 12.6 55 Sudoeste 90 Sudoeste 0.2 971.5 -6.5 78
2019-11-22 07:00:00 12 54 Sudoeste 82 Sudoeste 0 973.2 -8.2 78
2019-11-22 06:00:00 12 46 Sudoeste 76 Sudoeste 0.4 975.5 -8.1 75
2019-11-22 05:00:00 10.8 22 Sudeste 58 Sur 0.6 978 -7.4 78
2019-11-22 04:00:00 11.1 19 Sur 42 Sur 0.4 981.4 -5.6 76
2019-11-22 03:00:00 11.4 24 Sudoeste 44 Sudoeste 0 983.6 -4.4 68
2019-11-22 02:00:00 11.7 22 Sudoeste 38 Sudoeste 0 985.4 -3.5 67
2019-11-22 01:00:00 11.8 32 Sudoeste 48 Sudoeste 0 987 -2.9 68
2019-11-22 00:00:00 11.7 28 Sudoeste 46 Sudoeste 0 988 -2.4 68
2019-11-21 23:00:00 11.6 34 Sudoeste 48 Oeste 0 988.9 -2 71
2019-11-21 22:00:00 11.3 29 Oeste 49 Oeste 0 989.9 -1.3 75
2019-11-21 21:00:00 11.4 38 Sudoeste 48 Sudoeste 0 990.4 -1.3 75
2019-11-21 20:00:00 11.4 34 Sudoeste 46 Sudoeste 0 990.9 -0.5 74
2019-11-21 19:00:00 11.5 36 Sudoeste 49 Sudoeste 0 991.2 -0.1 71
2019-11-21 18:00:00 12 19 Sudoeste 55 Oeste 0 991.7 0.4 72
2019-11-21 17:00:00 13 39 Oeste 53 Oeste 0 991.4 0.3 73
2019-11-21 16:00:00 13.2 38 Oeste 61 Oeste 0 991.3 0.1 73
2019-11-21 15:00:00 12.8 41 Oeste 63 Sudoeste 0 991.3 -0.2 74
2019-11-21 14:00:00 12.8 46 Oeste 96 Oeste 0.2 991.1 -0.6 75
2019-11-21 13:00:00 12.8 55 Oeste 66 Oeste 0 991.2 -0.6 70
2019-11-21 12:00:00 12.2 55 Oeste 67 Sudoeste 0 991.5 -0.1 72
2019-11-21 11:00:00 11.4 50 Oeste 64 Oeste 0 991.7 -0.2 73
2019-11-21 10:00:00 10.3 46 Oeste 54 Sudoeste 0 991.8 1.4 77
2019-11-21 09:00:00 9.6 48 Oeste 64 Sudoeste 0.2 991.6 1.1 76
2019-11-21 08:00:00 -- -- -- -- -- -- -- -- --
2019-11-21 07:00:00 -- -- -- -- -- -- -- -- --
2019-11-21 06:00:00 -- -- -- -- -- -- -- -- --
2019-11-21 05:00:00 -- -- -- -- -- -- -- -- --
2019-11-21 04:00:00 -- -- -- -- -- -- -- -- --
2019-11-21 03:00:00 -- -- -- -- -- -- -- -- --
2019-11-21 02:00:00 -- -- -- -- -- -- -- -- --
2019-11-21 01:00:00 -- -- -- -- -- -- -- -- --
2019-11-21 00:00:00 -- -- -- -- -- -- -- -- --
2019-11-20 23:00:00 -- -- -- -- -- -- -- -- --
2019-11-20 22:00:00 -- -- -- -- -- -- -- -- --
2019-11-20 21:00:00 -- -- -- -- -- -- -- -- --
2019-11-20 20:00:00 -- -- -- -- -- -- -- -- --
2019-11-20 19:00:00 11 37 Oeste 52 Oeste 0 991.4 0.6 73
2019-11-20 18:00:00 11.4 36 Sudoeste 52 Oeste 0 991.2 0.1 73
2019-11-20 17:00:00 12.4 43 Sudoeste 60 Oeste 0 990.8 -0.9 68
2019-11-20 16:00:00 12.1 41 Oeste 59 Sudoeste 0 990.8 -1.4 70
2019-11-20 15:00:00 12.5 41 Oeste 67 Oeste 0 991.1 -1.9 66
2019-11-20 14:00:00 12.9 46 Oeste 64 Oeste 0 991.7 -1.8 65
2019-11-20 13:00:00 12.7 44 Sudoeste 67 Sudoeste 0 992.2 -2 65
2019-11-20 12:00:00 11.5 51 Sudoeste 68 Sudoeste 0 993 -1.5 69
2019-11-20 11:00:00 10.9 46 Oeste 54 Oeste 0 993.5 -1 78
2019-11-20 10:00:00 10.4 18 Oeste 30 Oeste 0 994.2 -0.7 76
2019-11-20 09:00:00 10.1 19 Sudoeste 34 Sudoeste 0 994.5 -0.9 70
2019-11-20 08:00:00 11.3 21 Sudoeste 35 Sudoeste 0 994.5 -1.5 60
2019-11-20 07:00:00 9.7 17 Sudoeste 27 Sudoeste 0 994.9 -1.8 76
2019-11-20 06:00:00 9.9 21 Oeste 27 Oeste 0 995.4 -1.8 79
2019-11-20 05:00:00 10 11 Oeste 16 Oeste 0 996 -2.1 78
2019-11-20 04:00:00 10.2 11 Sudoeste 28 Sudoeste 0 996.7 -2 78
2019-11-20 03:00:00 9.9 15 Sudoeste 28 Sudoeste 0 997.2 -1.7 85
2019-11-20 02:00:00 9.8 19 Sudoeste 28 Sudoeste 0 998.1 -1.6 89
2019-11-20 01:00:00 10.1 22 Sudoeste 31 Oeste 0 998.7 -1 87
2019-11-20 00:00:00 10.3 23 Sudoeste 28 Sudoeste 0 998.9 -1.3 86
2019-11-19 23:00:00 10.9 17 Oeste 31 Oeste 0 999.7 -1 88
2019-11-19 22:00:00 10.8 22 Sudoeste 26 Sudoeste 0.2 999.7 -1.1 87
2019-11-19 21:00:00 10.6 15 Oeste 21 Oeste 0 1000.2 -0.5 90
2019-11-19 20:00:00 10.5 12 Oeste 16 Oeste 0 1000.7 0.2 91
2019-11-19 19:00:00 10.3 9 Oeste 23 Sudoeste 0 1000.8 -0.2 93
2019-11-19 18:00:00 10.5 19 Oeste 34 Sudoeste 0 1000.7 -0.8 91
2019-11-19 17:00:00 10.6 30 Oeste 39 Oeste 0 1000.5 -1.3 90
2019-11-19 16:00:00 10.5 8 Sudoeste 21 Sudoeste 0 1001 -1.4 90
2019-11-19 15:00:00 10.3 6 Oeste 16 Sudoeste 0 1001.5 -1.6 92
2019-11-19 14:00:00 10 4 Sudeste 22 Sudoeste 2.2 1001.8 -1.7 92
2019-11-19 13:00:00 10.7 7 Sur 21 Sudoeste 0.4 1002.4 -1.2 81
2019-11-19 12:00:00 10.9 13 Sudoeste 22 Sur 0.2 1003.1 -0.8 74
2019-11-19 11:00:00 10.6 7 Sudoeste 13 Sur 0 1003.5 -0.3 75
2019-11-19 10:00:00 10.1 10 Sur 20 Sur 0 1003.6 -0.3 70
2019-11-19 09:00:00 9.6 7 Sudoeste 26 Sur 0 1003.9 -0.6 72
2019-11-19 08:00:00 9.4 20 Sur 37 Sur 0 1003.8 -1.2 69
2019-11-19 07:00:00 9.6 27 Sur 38 Sur 0 1003.9 -1.4 69
2019-11-19 06:00:00 9.1 23 Sur 30 Sur 0 1004.5 -1.3 73
2019-11-19 05:00:00 9 14 Sur 19 Sur 0 1005 -1.3 75
2019-11-19 04:00:00 9.1 5 Sudoeste 14 Oeste 0 1005.3 -1.6 81
2019-11-19 03:00:00 9.8 9 Oeste 19 Oeste 0 1005.8 -1.2 78
2019-11-19 02:00:00 9.8 11 Oeste 17 Oeste 0 1006.3 -1.4 80
2019-11-19 01:00:00 9.5 6 Sur 18 Oeste 0 1006.9 -1 75
2019-11-19 00:00:00 10 8 Sudoeste 16 Sur 0 1007 -1 73
2019-11-18 23:00:00 10.1 13 Oeste 18 Sudoeste 0 1007.7 -0.2 77
2019-11-18 22:00:00 10.2 8 Sudoeste 16 Sur 0 1007.9 -0.4 78
2019-11-18 21:00:00 9.6 14 Sur 18 Sudeste 0 1008 -0.1 84
2019-11-18 20:00:00 9.9 13 Sudeste 16 Sudeste 0 1007.9 -0.2 84
2019-11-18 19:00:00 10.8 11 Sur 14 Sur 0 1008.3 0.4 79
2019-11-18 18:00:00 10.8 9 Sudeste 12 Este 0 1008.1 0.1 82
2019-11-18 17:00:00 11.5 9 Este 22 Nordeste 0 1008.1 -0.1 77
2019-11-18 16:00:00 11.4 12 Nordeste 21 Nordeste 0 1007.9 -0.7 80
2019-11-18 15:00:00 13.4 10 Oeste 19 Oeste 0 1008 -0.8 75
2019-11-18 14:00:00 12.4 17 Oeste 23 Oeste 0.2 1008.2 -0.6 82
2019-11-18 13:00:00 11.2 21 Oeste 26 Oeste 0 1008.6 0.2 86
2019-11-18 12:00:00 12.2 6 Oeste 24 Norte 0 1008.8 1 73
2019-11-18 11:00:00 12.1 14 Norte 22 Nordeste 0 1008.8 1.6 73
2019-11-18 10:00:00 10.2 9 Sudeste 24 Norte 2.2 1008.4 1.6 89
2019-11-18 09:00:00 11.5 12 Noroeste 34 Norte 0 1007.8 1.3 72
2019-11-18 08:00:00 11.4 20 Norte 32 Norte 0 1007.2 1.1 72
2019-11-18 07:00:00 11.2 18 Norte 35 Norte 0 1006.8 1 75
2019-11-18 06:00:00 11.3 21 Norte 40 Norte 0 1006.5 1.1 74
2019-11-18 05:00:00 10.8 10 Norte 52 Norte 1.2 1006.1 0.8 78
2019-11-18 04:00:00 11.5 14 Norte 38 Norte 0 1005.8 0.2 75
2019-11-18 03:00:00 11.3 22 Norte 35 Norte 0 1005.4 0.5 72
2019-11-18 02:00:00 10.7 18 Norte 49 Nordeste 2.2 1005.3 0.6 78
2019-11-18 01:00:00 11 23 Norte 55 Norte 0 1005.6 1.2 74
2019-11-18 00:00:00 10.8 42 Norte 57 Norte 0.8 1004.9 1.1 83
2019-11-17 23:00:00 11.9 23 Norte 48 Norte 0.2 1004.7 1.5 71
2019-11-17 22:00:00 11.9 25 Nordeste 42 Nordeste 0 1004.4 2 64
2019-11-17 21:00:00 11.5 28 Norte 47 Norte 0.4 1003.8 2.3 72
2019-11-17 20:00:00 10.3 33 Norte 53 Norte 0 1003.2 2.6 85
2019-11-17 19:00:00 11.6 29 Norte 49 Norte 0 1002.4 2.8 73
2019-11-17 18:00:00 11.7 26 Norte 41 Norte 0 1001.5 1.8 75
2019-11-17 17:00:00 11.9 26 Noroeste 71 Oeste 0.6 1000.6 0.6 83
2019-11-17 16:00:00 11.6 54 Oeste 85 Noroeste 1 999.6 -0.4 81
2019-11-17 15:00:00 11.2 59 Oeste 74 Oeste 0 999.7 -1.4 81
2019-11-17 14:00:00 12.1 63 Oeste 76 Oeste 0 1000 -0.3 69
2019-11-17 13:00:00 12.7 61 Oeste 72 Noroeste 0 1000 -0.9 64
2019-11-17 12:00:00 12.5 48 Oeste 70 Noroeste 0 1001.1 1.4 69
2019-11-17 11:00:00 12.2 54 Noroeste 69 Noroeste 0 1000.3 0.5 70
2019-11-17 10:00:00 11.9 29 Noroeste 69 Noroeste 0.2 1000.9 2.3 71
2019-11-17 09:00:00 12 51 Noroeste 64 Noroeste 0 999.7 0.7 83
2019-11-17 08:00:00 12.7 57 Oeste 73 Noroeste 0 999.8 0.6 68
2019-11-17 07:00:00 12.9 62 Noroeste 73 Noroeste 0.2 998.6 0 70
2019-11-17 06:00:00 12.6 60 Oeste 72 Oeste 0.2 999 -0.7 75
2019-11-17 05:00:00 11.8 62 Oeste 82 Oeste 0 999.2 -1.4 92
2019-11-17 04:00:00 12 53 Oeste 65 Oeste 0 998.6 -2.7 84
2019-11-17 03:00:00 11.6 40 Oeste 54 Oeste 0 999.7 -2.1 80
2019-11-17 02:00:00 11.6 41 Oeste 60 Oeste 0 1000.6 -1.8 81
2019-11-17 01:00:00 10.8 36 Oeste 45 Sudoeste 0 1001.3 -1.4 82
2019-11-17 00:00:00 10.6 35 Oeste 50 Oeste 0 1001.8 -1.1 83
2019-11-16 23:00:00 10.4 37 Oeste 60 Oeste 0 1002.4 -0.9 83
2019-11-16 22:00:00 10.3 48 Oeste 55 Oeste 0 1002.7 -0.8 84
2019-11-16 21:00:00 9.8 41 Oeste 47 Sudoeste 0 1002.9 -0.7 87
2019-11-16 20:00:00 9.4 43 Oeste 54 Oeste 0 1003.3 -0.9 89
2019-11-16 19:00:00 9.1 41 Oeste 60 Sudoeste 0 1003.5 -0.4 92
2019-11-16 18:00:00 9 48 Oeste 55 Sudoeste 0.8 1003.6 -0.3 91
2019-11-16 17:00:00 9.4 36 Oeste 50 Oeste 0.2 1004.2 0.3 90
2019-11-16 16:00:00 10.2 41 Oeste 71 Oeste 0.4 1003.9 -0.4 82
2019-11-16 15:00:00 11.6 39 Oeste 51 Oeste 0 1003.9 -0.7 72
2019-11-16 14:00:00 10.9 41 Oeste 59 Oeste 0 1003.9 -0.7 70
2019-11-16 13:00:00 11.8 46 Oeste 55 Oeste 0 1004.3 0.1 53
2019-11-16 12:00:00 11.6 45 Oeste 57 Noroeste 0 1004.6 0.6 64
2019-11-16 11:00:00 11.5 46 Oeste 62 Oeste 0 1004.6 1.1 55
2019-11-16 10:00:00 10.7 43 Noroeste 57 Noroeste 0 1004.2 0.7 71
2019-11-16 09:00:00 11.4 44 Oeste 51 Oeste 0 1004 1 63
2019-11-16 08:00:00 11.1 37 Noroeste 54 Noroeste 0 1003.5 0.2 67
2019-11-16 07:00:00 11.1 18 Noroeste 42 Noroeste 0 1003.5 0.1 66
2019-11-16 06:00:00 11.4 28 Noroeste 44 Noroeste 0 1003 -0.4 58
2019-11-16 05:00:00 10.7 21 Noroeste 45 Noroeste 0.4 1003.3 0.3 75
2019-11-16 04:00:00 10.8 22 Noroeste 42 Noroeste 0 1003.4 0.7 66
2019-11-16 03:00:00 10.6 14 Noroeste 42 Norte 0 1003.4 1.3 78
2019-11-16 02:00:00 10.6 23 Norte 57 Norte 0 1003 1.2 74
2019-11-16 01:00:00 10.6 29 Norte 65 Norte 0.8 1002.7 1.6 70
2019-11-16 00:00:00 10.6 36 Norte 50 Norte 0 1002.1 1.6 68
2019-11-15 23:00:00 10.5 39 Norte 53 Norte 0 1001.8 1.8 73
2019-11-15 22:00:00 10.6 38 Norte 59 Norte 1 1001.1 1.7 71
2019-11-15 21:00:00 10.7 41 Norte 59 Norte 0 1000.5 0.9 69
2019-11-15 20:00:00 10.1 33 Norte 73 Norte 0.4 1000 1 75
2019-11-15 19:00:00 9.7 53 Norte 81 Norte 0 999.4 1.4 74
2019-11-15 18:00:00 8.6 41 Norte 71 Norte 0.6 999.6 1.7 78
2019-11-15 17:00:00 10.3 43 Norte 81 Norte 0 999 0.2 74
2019-11-15 16:00:00 9.8 54 Norte 81 Norte 0.4 998 -1.4 77
2019-11-15 15:00:00 10.3 42 Norte 76 Norte 4.4 997.9 -1.2 74
2019-11-15 14:00:00 8.9 50 Norte 87 Norte 0.6 998.8 -0.2 83
2019-11-15 13:00:00 10.3 27 Noroeste 73 Norte 0 999.4 0.7 73
2019-11-15 12:00:00 10.3 36 Norte 65 Norte 0 999.1 0.3 75
2019-11-15 11:00:00 10.5 35 Noroeste 65 Norte 0 999 0.7 63
2019-11-15 10:00:00 9.9 37 Norte 78 Norte 0.6 998.7 1.1 67
2019-11-15 09:00:00 8.5 34 Norte 66 Norte 0.2 998.8 1.3 74
2019-11-15 08:00:00 9.7 44 Norte 67 Norte 0 998.3 1.2 74
2019-11-15 07:00:00 10.3 31 Noroeste 58 Norte 0 997.6 0.4 63
2019-11-15 06:00:00 10.3 40 Norte 63 Norte 0 997.5 0.3 70
2019-11-15 05:00:00 10.5 36 Norte 61 Norte 0 997.1 -0.1 66
2019-11-15 04:00:00 10.4 36 Norte 63 Norte 0 997.2 -0.1 67
2019-11-15 03:00:00 10 32 Noroeste 68 Norte 0.2 997.2 0.6 71
2019-11-15 02:00:00 8.2 28 Norte 77 Norte 1.6 997.2 1.1 88
2019-11-15 01:00:00 8.2 33 Noroeste 78 Norte 1 997.3 1.2 77
2019-11-15 00:00:00 9.4 37 Norte 76 Norte 2 996.6 1.1 75
2019-11-14 23:00:00 9.7 42 Norte 80 Norte 0.8 996.1 1.1 78
2019-11-14 22:00:00 9.9 30 Noroeste 84 Norte 0.2 996.1 2.4 73
2019-11-14 21:00:00 10.1 45 Norte 86 Norte 0 995.5 2.4 73
2019-11-14 20:00:00 10.7 39 Norte 84 Norte 0.8 995 3 77
2019-11-14 19:00:00 10.5 54 Norte 96 Norte 0.2 993.7 2.7 77
2019-11-14 18:00:00 9.7 62 Norte 103 Norte 0.2 993.1 3.5 79
2019-11-14 17:00:00 10.7 53 Noroeste 90 Norte 0 992 3 75
2019-11-14 16:00:00 10.8 51 Noroeste 93 Noroeste 0.6 991 3.6 79
2019-11-14 15:00:00 11.3 43 Noroeste 76 Noroeste 0 989.6 4.2 71
2019-11-14 14:00:00 11.1 46 Norte 90 Noroeste 0 989 3.3 73
2019-11-14 13:00:00 11.9 41 Noroeste 91 Noroeste 0.6 987.4 -0.5 75
2019-11-14 12:00:00 10.6 65 Noroeste 92 Noroeste 0.8 985.4 -3.1 74
2019-11-14 11:00:00 10.5 54 Noroeste 86 Noroeste 0.8 985.7 -4 76
2019-11-14 10:00:00 7.4 42 Oeste 64 Sudoeste 1.2 987.9 -2.9 91
2019-11-14 09:00:00 7.2 44 Sudoeste 113 Oeste 0.6 988.5 -3.5 88
2019-11-14 08:00:00 8.8 49 Oeste 70 Oeste 0 989.7 -3 81
2019-11-14 07:00:00 8.6 49 Oeste 79 Oeste 0 990.8 -3.3 80
2019-11-14 06:00:00 8.7 49 Oeste 118 Oeste 0 992 -1.9 78
2019-11-14 05:00:00 9.1 59 Oeste 114 Oeste 0 992.7 -3.1 68
2019-11-14 04:00:00 8.4 63 Oeste 109 Oeste 0.2 994.1 -0.5 74
2019-11-14 03:00:00 10.4 76 Oeste 95 Oeste 0 993.9 -1.7 63
2019-11-14 02:00:00 8 52 Oeste 121 Noroeste 3.6 995.8 0.7 80
2019-11-14 01:00:00 10.9 67 Noroeste 95 Noroeste 0.6 994.6 -1.1 63
2019-11-14 00:00:00 10 68 Oeste 103 Noroeste 1.2 995.6 -0.1 79
2019-11-13 23:00:00 9.3 75 Oeste 96 Noroeste 0.6 995.1 -1.1 93
2019-11-13 22:00:00 9.8 61 Noroeste 96 Noroeste 0.6 995.7 -1 89
2019-11-13 21:00:00 11.1 59 Noroeste 99 Oeste 2 995.7 -2.3 88
2019-11-13 20:00:00 10.9 68 Oeste 93 Noroeste 1.6 996.2 -3.2 93
2019-11-13 19:00:00 12.9 67 Oeste 93 Oeste 0 996.7 -3.7 80
2019-11-13 18:00:00 11.9 76 Oeste 99 Oeste 0.2 998 -3.4 87
2019-11-13 17:00:00 12.7 53 Oeste 66 Sudoeste 0 999.4 -3.1 76
2019-11-13 16:00:00 12.8 49 Oeste 68 Oeste 0 1000.4 -3.3 77
2019-11-13 15:00:00 13 50 Oeste 58 Oeste 0 1001.4 -3.3 72
2019-11-13 14:00:00 13.4 36 Oeste 47 Oeste 0 1002.5 -2.1 70
2019-11-13 13:00:00 12.5 36 Oeste 44 Oeste 0 1003.7 -0.3 72
2019-11-13 12:00:00 12.7 29 Noroeste 38 Noroeste 0 1004.7 1 62
2019-11-13 11:00:00 12.6 18 Noroeste 37 Noroeste 0 1004.6 1.3 71
2019-11-13 10:00:00 12.4 9 Noroeste 21 Noroeste 0 1004 1.7 76
2019-11-13 09:00:00 12.6 9 Noroeste 27 Norte 0 1003.7 2.6 73
2019-11-13 08:00:00 12.4 18 Norte 24 Norte 0 1003.3 3 73
2019-11-13 07:00:00 12.2 15 Nordeste 33 Nordeste 0 1002.3 3 80
2019-11-13 06:00:00 12.1 21 Nordeste 47 Nordeste 0 1001.1 2.5 83
2019-11-13 05:00:00 11.8 31 Nordeste 58 Nordeste 0 1000.3 2.6 91
2019-11-13 04:00:00 11.6 35 Nordeste 55 Nordeste 0.4 999.3 2.3 95
2019-11-13 03:00:00 12.5 24 Norte 46 Nordeste 0 998.6 2.8 93
2019-11-13 02:00:00 12.7 22 Nordeste 40 Nordeste 0 997.7 2.7 95
2019-11-13 01:00:00 13.1 22 Nordeste 39 Nordeste 0 997 2.2 91
2019-11-13 00:00:00 12.7 23 Nordeste 40 Nordeste 0.8 995.8 1.6 96
2019-11-12 23:00:00 13.3 21 Norte 27 Norte 6.6 995 0.8 97
2019-11-12 22:00:00 13.7 10 Noroeste 46 Oeste 1.6 994.8 1.5 97
2019-11-12 21:00:00 14 36 Oeste 44 Oeste 0 994.2 0.6 97
2019-11-12 20:00:00 14.3 49 Oeste 99 Oeste 0.6 994.2 -0.3 97
2019-11-12 19:00:00 15 71 Oeste 93 Oeste 0.8 993.3 -1.6 97
2019-11-12 18:00:00 15.1 75 Oeste 95 Oeste 0.8 993.6 -1.9 95
2019-11-12 17:00:00 14 59 Oeste 78 Sudoeste 1.4 994.5 -2.9 94
2019-11-12 16:00:00 13.1 67 Oeste 86 Sudoeste 0.8 994.9 -5.2 93
2019-11-12 15:00:00 13.3 69 Oeste 95 Oeste 0.2 995.5 -7.2 87
2019-11-12 14:00:00 12.8 62 Oeste 82 Oeste 0 997.4 -6.5 87
2019-11-12 13:00:00 12.4 51 Oeste 64 Oeste 0.2 1000.1 -4.7 86
2019-11-12 12:00:00 11.7 30 Sudoeste 51 Sudoeste 0.2 1002.7 -2.6 88
2019-11-12 11:00:00 11.2 39 Oeste 50 Oeste 0.2 1003.9 -2.1 90
2019-11-12 10:00:00 11 37 Oeste 45 Sudoeste 0 1004.8 -1.7 90
2019-11-12 09:00:00 10.9 37 Oeste 44 Sudoeste 0.2 1005.3 -1.4 89
2019-11-12 08:00:00 10.6 32 Oeste 48 Oeste 0 1006 -1.3 92
2019-11-12 07:00:00 10.8 35 Oeste 41 Oeste 0 1006.5 -1.1 88
2019-11-12 06:00:00 10.8 28 Oeste 40 Oeste 0.2 1006.7 -1.5 88
2019-11-12 05:00:00 10.4 26 Oeste 48 Oeste 2.4 1007.3 -1 91
2019-11-12 04:00:00 10.7 40 Oeste 51 Oeste 0.6 1007.6 -1.9 89
2019-11-12 03:00:00 10.6 24 Oeste 41 Oeste 0.8 1008.2 -1.8 85
2019-11-12 02:00:00 12 32 Oeste 43 Oeste 0 1008.3 -2.1 70
2019-11-12 01:00:00 12.1 27 Oeste 35 Oeste 0 1009.5 -0.9 71
2019-11-12 00:00:00 12.1 25 Oeste 41 Oeste 0 1010 -0.6 73
2019-11-11 23:00:00 13.2 33 Oeste 41 Noroeste 0 1010.4 -0.4 68
2019-11-11 22:00:00 13 34 Noroeste 42 Noroeste 0 1010.4 -0.2 66
2019-11-11 21:00:00 12.9 17 Noroeste 33 Noroeste 0 1010.6 0 63
2019-11-11 20:00:00 12.9 16 Noroeste 28 Noroeste 0 1010.8 0.2 63
2019-11-11 19:00:00 13 19 Noroeste 28 Noroeste 0 1010.6 0.1 63
2019-11-11 18:00:00 12.8 19 Oeste 23 Noroeste 0 1010.6 -0.1 63
2019-11-11 17:00:00 13.2 7 Noroeste 17 Noroeste 0 1010.6 -0.5 63
2019-11-11 16:00:00 13.2 9 Noroeste 23 Noroeste 0 1010.5 -0.3 65
2019-11-11 15:00:00 13.6 10 Noroeste 28 Norte 0 1010.7 -0.3 58
2019-11-11 14:00:00 13.4 13 Noroeste 32 Norte 0 1011.1 0.5 56
2019-11-11 13:00:00 13.1 18 Norte 36 Norte 0 1010.8 0.9 67
2019-11-11 12:00:00 13.3 23 Norte 39 Norte 0 1011 2 64
2019-11-11 11:00:00 13.1 26 Norte 44 Norte 0 1010.6 2.9 63
2019-11-11 10:00:00 13.2 28 Norte 46 Norte 0 1009.9 3.1 72
2019-11-11 09:00:00 13.2 24 Noroeste 49 Norte 0 1009 3.2 73
2019-11-11 08:00:00 13.6 36 Noroeste 54 Norte 0 1007.7 2.7 81
2019-11-11 07:00:00 13.5 28 Noroeste 50 Noroeste 0 1006.8 2 92
2019-11-11 06:00:00 13.7 21 Noroeste 58 Oeste 0.2 1005.8 1 96
2019-11-11 05:00:00 14 45 Oeste 59 Oeste 0.2 1005 -0.3 96
2019-11-11 04:00:00 13.4 45 Oeste 60 Oeste 0 1004.8 -1.6 93
2019-11-11 03:00:00 13.5 52 Oeste 66 Oeste 0 1004.8 -2 89
2019-11-11 02:00:00 12.8 51 Oeste 66 Oeste 0 1005.3 -2.5 88
2019-11-11 01:00:00 11.5 39 Oeste 46 Oeste 0 1006.4 -2.3 87
2019-11-11 00:00:00 10.7 27 Oeste 38 Oeste 0 1006.8 -2.2 89